Time;durP1;ratioP1;P1;durP2;ratioP2;P2;SDS_P1;SDS_P2;PMS_P1;PMS_P2;Temp;Humidity;BMP_temperature;BMP_pressure;BME280_temperature;BME280_humidity;BME280_pressure;Samples;Min_cycle;Max_cycle;Signal;HPM_P1;HPM_P2
2023/10/25 00:04:41;;;;;;;;;;;23.40;62.90;;;;;;236575;1240;22951;-61
2023/10/25 00:09:43;;;;;;;;;;;23.50;62.80;;;;;;236443;1240;22978;-62
2023/10/25 00:14:46;;;;;;;;;;;23.60;62.50;;;;;;236717;1240;22290;-61
2023/10/25 00:19:50;;;;;;;;;;;23.50;62.60;;;;;;236747;1236;22351;-61
2023/10/25 00:24:53;;;;;;;;;;;23.50;62.70;;;;;;236568;1238;22321;-61
2023/10/25 00:29:55;;;;;;;;;;;23.40;62.60;;;;;;236414;1240;22959;-60
2023/10/25 00:34:57;;;;;;;;;;;23.50;62.60;;;;;;236537;1239;22300;-60
2023/10/25 00:40:00;;;;;;;;;;;23.50;62.50;;;;;;236649;1237;22441;-61
2023/10/25 00:45:02;;;;;;;;;;;23.40;62.50;;;;;;236511;1240;22349;-60
2023/10/25 00:50:05;;;;;;;;;;;23.50;62.60;;;;;;236688;1240;22291;-61
2023/10/25 00:55:08;;;;;;;;;;;23.40;62.60;;;;;;236543;1240;23138;-61
2023/10/25 01:00:11;;;;;;;;;;;23.50;62.30;;;;;;236552;1240;22386;-61
2023/10/25 01:05:15;;;;;;;;;;;23.50;62.20;;;;;;236700;1240;23140;-61
2023/10/25 01:10:18;;;;;;;;;;;23.60;62.10;;;;;;236677;1240;22307;-60
2023/10/25 01:15:24;;;;;;;;;;;23.60;62.20;;;;;;236567;1240;22285;-61
2023/10/25 01:20:26;;;;;;;;;;;23.60;62.10;;;;;;236290;1240;22376;-61
2023/10/25 01:25:29;;;;;;;;;;;23.50;62.10;;;;;;236492;1240;22299;-60
2023/10/25 01:30:32;;;;;;;;;;;23.60;62.00;;;;;;236496;1238;22442;-58
2023/10/25 01:35:34;;;;;;;;;;;23.60;62.20;;;;;;236301;1240;22299;-60
2023/10/25 01:40:37;;;;;;;;;;;23.60;62.00;;;;;;236311;1240;22384;-61
2023/10/25 01:45:40;;;;;;;;;;;23.50;62.00;;;;;;236660;1240;22303;-61
2023/10/25 01:50:42;;;;;;;;;;;23.50;61.90;;;;;;236645;1234;22345;-61
2023/10/25 01:55:45;;;;;;;;;;;23.60;61.80;;;;;;236624;1240;22281;-60
2023/10/25 02:00:48;;;;;;;;;;;23.60;61.80;;;;;;236647;1240;22341;-61
2023/10/25 02:05:50;;;;;;;;;;;23.60;61.90;;;;;;236664;1238;22307;-61
2023/10/25 02:10:52;;;;;;;;;;;23.50;61.90;;;;;;236661;1240;22332;-59
2023/10/25 02:15:55;;;;;;;;;;;23.60;61.90;;;;;;236331;1240;23106;-61
2023/10/25 02:20:57;;;;;;;;;;;23.60;62.40;;;;;;236703;1240;22485;-62
2023/10/25 02:26:00;;;;;;;;;;;23.50;61.90;;;;;;236652;1240;23044;-61
2023/10/25 02:31:02;;;;;;;;;;;23.60;61.90;;;;;;236559;1240;23055;-61
2023/10/25 02:36:05;;;;;;;;;;;23.50;61.90;;;;;;236534;1240;22298;-61
2023/10/25 02:41:07;;;;;;;;;;;23.60;61.90;;;;;;236693;1240;22346;-61
2023/10/25 02:46:12;;;;;;;;;;;23.60;61.90;;;;;;236359;1240;23006;-60
2023/10/25 02:51:14;;;;;;;;;;;23.60;61.80;;;;;;236344;1240;22310;-60
2023/10/25 02:56:17;;;;;;;;;;;23.50;61.80;;;;;;236801;1240;22303;-61
2023/10/25 03:01:23;;;;;;;;;;;23.50;61.90;;;;;;236717;1240;22299;-61
2023/10/25 03:06:26;;;;;;;;;;;23.50;61.90;;;;;;236375;1240;23070;-61
2023/10/25 03:11:28;;;;;;;;;;;23.60;61.70;;;;;;236743;1239;22364;-61
2023/10/25 03:16:30;;;;;;;;;;;23.60;61.90;;;;;;236765;1237;22341;-61
2023/10/25 03:21:33;;;;;;;;;;;23.60;61.70;;;;;;236490;1240;313022;-61
2023/10/25 03:26:35;;;;;;;;;;;23.60;61.80;;;;;;236754;1237;22262;-56
2023/10/25 03:31:38;;;;;;;;;;;23.60;61.60;;;;;;236388;1240;22293;-55
2023/10/25 03:36:40;;;;;;;;;;;23.60;61.60;;;;;;236682;1237;22353;-56
2023/10/25 03:41:43;;;;;;;;;;;23.60;61.60;;;;;;236566;1240;22320;-55
2023/10/25 03:46:47;;;;;;;;;;;23.60;61.60;;;;;;236373;1240;22306;-55
2023/10/25 03:51:49;;;;;;;;;;;23.60;61.50;;;;;;236779;1240;22300;-55
2023/10/25 03:56:52;;;;;;;;;;;23.60;61.30;;;;;;236725;1240;22333;-56
2023/10/25 04:01:55;;;;;;;;;;;23.80;61.10;;;;;;236489;1240;22292;-55
2023/10/25 04:06:57;;;;;;;;;;;23.70;61.30;;;;;;236707;1240;23077;-56
2023/10/25 04:11:59;;;;;;;;;;;23.70;60.90;;;;;;236817;1240;22290;-55
2023/10/25 04:17:02;;;;;;;;;;;23.70;61.10;;;;;;236465;1240;22343;-56
2023/10/25 04:22:05;;;;;;;;;;;23.60;61.70;;;;;;236795;1240;23189;-56
2023/10/25 04:27:08;;;;;;;;;;;23.60;61.40;;;;;;236440;1240;22292;-57
2023/10/25 04:32:10;;;;;;;;;;;23.50;61.60;;;;;;236712;1240;22359;-56
2023/10/25 04:37:13;;;;;;;;;;;23.50;61.60;;;;;;236758;1237;22370;-56
2023/10/25 04:42:16;;;;;;;;;;;23.50;61.60;;;;;;236696;1240;22317;-53
2023/10/25 04:47:18;;;;;;;;;;;23.50;61.50;;;;;;236589;1240;22313;-54
2023/10/25 04:52:20;;;;;;;;;;;23.70;61.10;;;;;;236563;1240;22284;-54
2023/10/25 04:57:23;;;;;;;;;;;23.70;60.90;;;;;;236350;1240;22362;-54
2023/10/25 05:02:25;;;;;;;;;;;23.80;61.00;;;;;;236703;1240;22323;-55
2023/10/25 05:07:28;;;;;;;;;;;23.90;60.90;;;;;;236607;1240;22295;-52
2023/10/25 05:12:38;;;;;;;;;;;23.70;61.00;;;;;;236587;1240;22435;-54
2023/10/25 05:17:43;;;;;;;;;;;23.60;61.30;;;;;;236592;1239;22210;-54
2023/10/25 05:22:52;;;;;;;;;;;23.60;61.50;;;;;;236872;1240;22291;-52
2023/10/25 05:27:54;;;;;;;;;;;23.50;61.40;;;;;;236443;1240;22209;-55
2023/10/25 05:33:03;;;;;;;;;;;23.50;62.10;;;;;;236754;1240;23179;-57
2023/10/25 05:38:06;;;;;;;;;;;23.60;61.50;;;;;;236747;1240;22415;-56
2023/10/25 05:43:13;;;;;;;;;;;23.50;61.50;;;;;;236626;1240;23067;-54
2023/10/25 05:48:16;;;;;;;;;;;23.40;61.80;;;;;;236778;1240;22262;-57
2023/10/25 05:53:18;;;;;;;;;;;23.50;61.80;;;;;;236799;1237;22284;-56
2023/10/25 05:58:21;;;;;;;;;;;23.40;61.90;;;;;;236782;1240;23121;-53
2023/10/25 06:03:25;;;;;;;;;;;23.40;61.90;;;;;;236560;1240;22346;-55
2023/10/25 06:08:34;;;;;;;;;;;23.40;61.90;;;;;;236672;1240;22243;-54
2023/10/25 06:13:37;;;;;;;;;;;23.30;62.60;;;;;;236642;1240;22361;-52
2023/10/25 06:18:39;;;;;;;;;;;23.50;62.50;;;;;;236662;1240;23106;-51
2023/10/25 06:23:42;;;;;;;;;;;23.50;62.10;;;;;;236787;1237;22366;-53
2023/10/25 06:28:44;;;;;;;;;;;23.50;62.30;;;;;;236537;1240;22397;-52
2023/10/25 06:33:47;;;;;;;;;;;23.50;62.10;;;;;;236816;1240;22303;-51
2023/10/25 06:38:49;;;;;;;;;;;23.40;62.10;;;;;;236426;1240;22354;-52
2023/10/25 06:43:52;;;;;;;;;;;23.40;62.50;;;;;;236826;1240;22310;-52
2023/10/25 06:48:56;;;;;;;;;;;23.40;62.60;;;;;;236796;1240;22265;-53
2023/10/25 06:53:59;;;;;;;;;;;23.40;62.60;;;;;;236318;1240;22345;-52
2023/10/25 06:59:01;;;;;;;;;;;23.40;62.80;;;;;;236358;1240;23040;-52
2023/10/25 07:04:04;;;;;;;;;;;23.40;62.90;;;;;;236891;1240;23072;-53
2023/10/25 07:09:07;;;;;;;;;;;23.60;62.70;;;;;;236755;1240;22279;-51
2023/10/25 07:14:09;;;;;;;;;;;23.70;62.80;;;;;;236894;1236;22310;-50
2023/10/25 07:19:11;;;;;;;;;;;23.70;63.00;;;;;;236562;1240;22316;-49
2023/10/25 07:24:14;;;;;;;;;;;23.90;63.10;;;;;;236880;1240;22302;-50
2023/10/25 07:29:16;;;;;;;;;;;23.80;62.80;;;;;;236534;1240;23060;-50
2023/10/25 07:34:19;;;;;;;;;;;23.90;62.90;;;;;;236604;1240;22361;-49
2023/10/25 07:39:21;;;;;;;;;;;24.10;62.70;;;;;;236588;1240;22497;-51
2023/10/25 07:44:24;;;;;;;;;;;24.20;62.40;;;;;;236395;1240;22946;-52
2023/10/25 07:49:26;;;;;;;;;;;24.30;62.10;;;;;;236599;1240;22269;-50
2023/10/25 07:54:28;;;;;;;;;;;24.30;62.00;;;;;;236674;1240;22276;-52
2023/10/25 08:02:57;;;;;;;3.30;2.80;;;24.40;61.70;;;;;;215681;1301;542573;-54
2023/10/25 08:08:01;;;;;;;5.40;2.70;;;24.30;62.40;;;;;;220062;1275;22618;-52
2023/10/25 08:13:06;;;;;;;5.00;3.00;;;24.10;62.80;;;;;;219597;1276;222371;-52
2023/10/25 08:18:10;;;;;;;13.60;3.20;;;24.10;63.20;;;;;;220250;1278;22613;-53
2023/10/25 08:23:14;;;;;;;4.40;3.00;;;24.10;63.20;;;;;;220253;1267;22722;-53
2023/10/25 08:28:19;;;;;;;2.70;2.50;;;24.00;63.50;;;;;;220289;1273;23916;-52
2023/10/25 08:33:23;;;;;;;5.20;2.90;;;24.00;63.60;;;;;;220148;1273;22947;-52
2023/10/25 08:38:27;;;;;;;5.20;2.80;;;24.00;63.50;;;;;;220208;1260;22519;-53
2023/10/25 08:43:33;;;;;;;3.10;2.50;;;23.90;63.70;;;;;;220196;1278;22575;-51
2023/10/25 08:48:37;;;;;;;8.00;2.30;;;24.00;63.60;;;;;;219806;1275;24155;-51
2023/10/25 08:53:42;;;;;;;11.70;2.90;;;24.00;63.20;;;;;;220018;1275;22517;-50
2023/10/25 08:58:46;;;;;;;3.10;2.60;;;24.10;63.10;;;;;;220044;1275;23905;-50
2023/10/25 09:03:50;;;;;;;6.70;2.90;;;24.20;63.00;;;;;;220141;1269;22543;-55
2023/10/25 09:09:02;;;;;;;9.70;3.00;;;24.30;62.90;;;;;;220169;1268;22537;-53
2023/10/25 09:14:07;;;;;;;5.00;2.40;;;24.20;63.30;;;;;;219880;1275;22538;-63
2023/10/25 09:19:11;;;;;;;11.00;2.30;;;24.20;62.50;;;;;;219751;1267;22534;-59
2023/10/25 09:24:16;;;;;;;7.00;2.70;;;24.30;63.20;;;;;;220169;1279;22535;-59
2023/10/25 09:29:27;;;;;;;5.60;2.30;;;24.30;63.10;;;;;;220221;1275;23143;-61
2023/10/25 09:34:37;;;;;;;7.70;2.40;;;24.40;62.70;;;;;;220336;1275;24260;-58
2023/10/25 09:39:43;;;;;;;3.70;2.10;;;24.40;62.60;;;;;;220048;1275;24178;-59
2023/10/25 09:44:51;;;;;;;2.80;2.20;;;24.30;62.60;;;;;;220016;1267;22608;-60
2023/10/25 09:50:03;;;;;;;3.90;2.10;;;24.30;62.70;;;;;;219923;1275;22608;-58
2023/10/25 09:55:16;;;;;;;2.90;2.50;;;24.40;62.70;;;;;;219980;1260;22553;-60
2023/10/25 10:00:21;;;;;;;4.50;2.20;;;24.30;62.30;;;;;;220168;1276;24262;-60
2023/10/25 10:05:41;;;;;;;5.60;2.40;;;24.30;62.40;;;;;;219956;1278;22591;-62
2023/10/25 10:10:45;;;;;;;5.30;2.50;;;24.40;62.70;;;;;;220200;1276;22815;-60
2023/10/25 10:16:01;;;;;;;7.60;2.40;;;24.50;62.50;;;;;;221804;1265;23652;-59
2023/10/25 10:21:13;;;;;;;7.30;2.30;;;24.30;62.60;;;;;;221413;1271;23001;-57
2023/10/25 10:26:53;;;;;;;9.50;3.10;;;24.50;62.60;;;;;;221456;1270;24227;-53
2023/10/25 10:32:00;;;;;;;11.40;2.30;;;24.50;62.80;;;;;;220894;1271;22901;-59
2023/10/25 10:37:07;;;;;;;3.90;2.20;;;24.40;62.80;;;;;;220582;1274;22562;-55
2023/10/25 10:42:20;;;;;;;9.10;2.40;;;24.40;62.80;;;;;;227174;1272;24203;-57
2023/10/25 10:47:39;;;;;;;4.00;2.20;;;24.40;62.50;;;;;;220114;1273;25313;-56
2023/10/25 10:52:46;;;;;;;3.90;2.10;;;24.40;62.60;;;;;;222077;1265;25528;-63
2023/10/25 10:57:52;;;;;;;9.80;2.40;;;24.30;63.00;;;;;;220706;1271;24394;-63
2023/10/25 11:03:04;;;;;;;13.20;2.80;;;24.10;64.10;;;;;;220277;1265;23271;-62
2023/10/25 11:08:13;;;;;;;12.00;4.30;;;23.90;65.80;;;;;;221315;1257;24232;-63
2023/10/25 11:13:19;;;;;;;4.10;2.10;;;23.70;66.10;;;;;;221194;1265;22792;-64
2023/10/25 11:18:28;;;;;;;2.40;1.90;;;23.70;66.20;;;;;;221410;1266;25233;-60
2023/10/25 11:23:32;;;;;;;10.70;2.60;;;23.70;66.60;;;;;;229081;1267;22127;-62
2023/10/25 11:28:39;;;;;;;5.50;2.80;;;23.70;66.50;;;;;;228993;1270;23050;-59
2023/10/25 11:33:45;;;;;;;7.00;2.60;;;23.80;66.10;;;;;;222466;1272;22534;-61
2023/10/25 11:38:49;;;;;;;3.80;2.00;;;23.90;66.50;;;;;;221449;1265;22521;-59
2023/10/25 11:43:53;;;;;;;4.20;1.90;;;23.70;66.70;;;;;;221353;1260;25342;-62
2023/10/25 11:48:59;;;;;;;10.30;2.80;;;23.60;67.50;;;;;;221382;1258;24358;-59
2023/10/25 11:54:04;;;;;;;2.90;2.00;;;23.70;67.50;;;;;;220961;1258;24261;-59
2023/10/25 11:59:21;;;;;;;3.60;1.60;;;23.50;68.20;;;;;;222831;1273;22521;-60
2023/10/25 12:04:25;;;;;;;5.20;2.30;;;23.60;68.80;;;;;;221447;1265;22532;-60
2023/10/25 12:09:29;;;;;;;4.10;2.20;;;23.60;68.50;;;;;;221233;1267;22544;-59
2023/10/25 12:14:37;;;;;;;4.80;1.80;;;23.50;69.20;;;;;;221254;1267;22540;-60
2023/10/25 12:19:41;;;;;;;5.30;2.10;;;23.40;69.40;;;;;;221213;1264;22520;-58
2023/10/25 12:24:46;;;;;;;2.40;2.10;;;23.40;69.80;;;;;;221630;1267;25423;-59
2023/10/25 12:29:52;;;;;;;4.20;1.40;;;23.40;69.80;;;;;;221295;1267;24203;-60
2023/10/25 12:34:57;;;;;;;7.80;2.10;;;23.50;69.80;;;;;;221114;1267;24245;-61
2023/10/25 12:40:04;;;;;;;6.20;2.00;;;23.70;69.00;;;;;;221271;1257;23039;-60
2023/10/25 12:45:09;;;;;;;3.00;2.20;;;23.80;68.60;;;;;;221115;1267;23840;-58
2023/10/25 12:50:13;;;;;;;3.90;1.90;;;23.90;68.30;;;;;;221478;1267;23012;-60
2023/10/25 12:55:17;;;;;;;6.00;2.00;;;23.90;68.40;;;;;;221293;1259;22540;-61
2023/10/25 13:00:22;;;;;;;5.40;1.80;;;24.00;68.40;;;;;;221532;1265;22543;-59
2023/10/25 13:05:26;;;;;;;6.00;2.10;;;24.10;68.40;;;;;;221338;1261;22530;-61
2023/10/25 13:10:30;;;;;;;6.10;2.20;;;24.00;68.60;;;;;;221262;1267;24093;-59
2023/10/25 13:15:35;;;;;;;7.30;2.10;;;24.20;67.60;;;;;;221427;1267;24286;-59
2023/10/25 13:20:40;;;;;;;9.60;2.40;;;24.10;67.40;;;;;;221204;1260;23547;-57
2023/10/25 13:25:44;;;;;;;7.70;1.90;;;24.10;67.30;;;;;;221752;1251;22589;-58
2023/10/25 13:30:48;;;;;;;7.90;2.00;;;24.20;67.30;;;;;;221640;1257;23279;-56
2023/10/25 13:35:52;;;;;;;9.00;2.50;;;24.20;67.00;;;;;;221380;1264;22632;-57
2023/10/25 13:40:57;;;;;;;5.70;2.10;;;24.30;67.80;;;;;;221435;1267;22539;-57
2023/10/25 13:46:04;;;;;;;10.00;2.10;;;24.40;67.90;;;;;;221370;1251;24613;-56
2023/10/25 13:51:14;;;;;;;3.70;2.10;;;24.40;67.10;;;;;;221265;1267;22537;-55
2023/10/25 13:56:19;;;;;;;7.60;2.40;;;24.40;66.90;;;;;;222480;1262;22528;-54
2023/10/25 14:01:33;;;;;;;5.90;2.30;;;24.40;67.60;;;;;;221194;1254;22524;-60
2023/10/25 14:06:42;;;;;;;5.20;2.80;;;24.40;67.10;;;;;;221553;1258;23466;-55
2023/10/25 14:12:03;;;;;;;6.10;2.20;;;24.30;67.50;;;;;;221417;1267;25173;-57
2023/10/25 14:17:20;;;;;;;8.00;2.10;;;24.30;68.20;;;;;;221541;1265;24269;-58
2023/10/25 14:22:38;;;;;;;12.00;2.20;;;24.20;67.80;;;;;;221085;1265;22611;-59
2023/10/25 14:27:45;;;;;;;11.60;2.00;;;24.10;66.70;;;;;;221878;1257;22521;-60
2023/10/25 14:32:59;;;;;;;7.30;2.20;;;24.10;66.90;;;;;;221636;1257;24345;-57
2023/10/25 14:38:14;;;;;;;12.00;3.20;;;24.00;67.60;;;;;;221483;1267;23055;-55
2023/10/25 14:43:30;;;;;;;6.90;2.40;;;24.00;68.00;;;;;;221285;1267;22527;-54
2023/10/25 14:48:44;;;;;;;14.00;2.60;;;24.00;69.10;;;;;;221047;1265;25339;-58
2023/10/25 14:53:59;;;;;;;13.30;3.40;;;24.00;70.40;;;;;;221347;1265;24225;-57
2023/10/25 14:59:11;;;;;;;13.20;2.30;;;24.10;71.60;;;;;;221264;1265;24237;-57
2023/10/25 15:04:28;;;;;;;9.50;3.00;;;24.10;73.80;;;;;;221080;1257;22524;-57
2023/10/25 15:09:44;;;;;;;12.40;2.60;;;24.20;73.60;;;;;;221215;1267;22526;-58
2023/10/25 15:14:59;;;;;;;16.90;4.50;;;24.20;74.00;;;;;;221286;1269;25289;-58
2023/10/25 15:20:15;;;;;;;13.30;3.60;;;24.20;73.60;;;;;;221287;1266;25230;-60
2023/10/25 15:25:28;;;;;;;7.80;3.40;;;24.10;73.00;;;;;;221144;1258;25356;-57
2023/10/25 15:30:32;;;;;;;5.70;2.80;;;24.10;72.60;;;;;;221195;1269;23241;-58
2023/10/25 15:35:36;;;;;;;10.00;2.70;;;24.00;72.50;;;;;;221431;1258;22734;-58
2023/10/25 15:40:41;;;;;;;9.80;2.90;;;23.90;72.10;;;;;;221163;1265;22706;-57
2023/10/25 15:45:45;;;;;;;8.10;3.40;;;23.90;70.90;;;;;;221241;1266;23011;-58
2023/10/25 15:50:52;;;;;;;9.20;2.80;;;23.70;70.00;;;;;;221497;1265;22657;-53
2023/10/25 15:56:06;;;;;;;6.60;2.80;;;23.70;68.50;;;;;;221328;1257;25247;-56
2023/10/25 16:01:14;;;;;;;5.60;3.40;;;23.70;68.20;;;;;;221294;1260;22938;-56
2023/10/25 16:06:30;;;;;;;7.60;3.00;;;23.70;68.10;;;;;;221387;1267;24247;-58
2023/10/25 16:11:36;;;;;;;4.20;3.20;;;23.70;67.90;;;;;;221217;1265;22528;-54
2023/10/25 16:16:40;;;;;;;9.20;3.80;;;23.60;68.00;;;;;;221431;1257;26092;-58
2023/10/25 16:21:46;;;;;;;4.60;3.50;;;23.70;67.60;;;;;;221390;1259;22523;-57
2023/10/25 16:26:50;;;;;;;11.90;4.80;;;23.70;67.40;;;;;;220972;1257;25558;-58
2023/10/25 16:31:54;;;;;;;11.30;5.00;;;23.60;68.20;;;;;;221017;1265;22528;-59
2023/10/25 16:37:01;;;;;;;7.00;4.70;;;23.70;67.90;;;;;;220957;1269;22536;-61
2023/10/25 16:42:10;;;;;;;9.40;6.00;;;23.50;68.00;;;;;;221124;1268;22518;-60
2023/10/25 16:47:15;;;;;;;10.30;6.50;;;23.60;68.60;;;;;;221539;1268;25364;-60
2023/10/25 16:52:20;;;;;;;15.30;8.40;;;23.50;68.70;;;;;;221318;1267;24327;-60
2023/10/25 16:57:25;;;;;;;15.30;7.50;;;23.30;68.00;;;;;;221554;1265;24323;-60
2023/10/25 17:02:30;;;;;;;16.10;8.50;;;23.30;68.20;;;;;;221290;1258;22510;-58
2023/10/25 17:07:36;;;;;;;13.30;9.00;;;23.10;66.90;;;;;;221005;1266;22715;-56
2023/10/25 17:12:41;;;;;;;12.00;8.80;;;23.00;68.20;;;;;;221312;1265;22756;-56
2023/10/25 17:17:47;;;;;;;16.50;9.00;;;23.20;67.20;;;;;;221062;1258;22534;-55
2023/10/25 17:22:53;;;;;;;15.80;8.50;;;23.20;67.40;;;;;;221279;1258;24280;-54
2023/10/25 17:27:58;;;;;;;17.80;9.40;;;23.20;68.20;;;;;;221324;1259;25227;-56
2023/10/25 17:33:04;;;;;;;11.40;8.60;;;23.20;68.10;;;;;;221427;1257;24324;-55
2023/10/25 17:38:11;;;;;;;31.30;9.90;;;23.20;68.90;;;;;;221777;1265;22654;-54
2023/10/25 17:43:17;;;;;;;13.70;9.70;;;23.30;71.70;;;;;;221243;1259;22525;-54
2023/10/25 17:48:23;;;;;;;16.10;10.30;;;23.30;71.10;;;;;;221565;1257;24246;-53
2023/10/25 17:53:29;;;;;;;16.70;10.70;;;23.30;70.30;;;;;;221208;1261;22622;-55
2023/10/25 17:58:34;;;;;;;13.00;10.00;;;23.10;70.70;;;;;;221358;1265;22528;-54
2023/10/25 18:03:39;;;;;;;16.00;10.50;;;23.00;71.40;;;;;;221467;1265;24273;-53
2023/10/25 18:08:45;;;;;;;10.50;9.00;;;22.90;70.60;;;;;;221605;1255;25406;-55
2023/10/25 18:13:51;;;;;;;14.10;9.60;;;22.90;71.40;;;;;;221603;1258;22612;-53
2023/10/25 18:19:05;;;;;;;14.50;10.10;;;23.00;70.70;;;;;;221522;1263;25356;-54
2023/10/25 18:24:12;;;;;;;14.00;10.20;;;23.00;70.30;;;;;;221344;1265;24075;-55
2023/10/25 18:29:21;;;;;;;17.70;10.70;;;23.00;69.90;;;;;;221362;1262;22545;-54
2023/10/25 18:34:27;;;;;;;16.50;10.70;;;23.00;70.40;;;;;;221488;1265;22762;-56
2023/10/25 18:39:39;;;;;;;14.30;11.70;;;23.00;69.80;;;;;;221648;1270;22568;-56
2023/10/25 18:45:00;;;;;;;16.80;11.90;;;22.90;69.80;;;;;;221730;1265;22680;-54
2023/10/25 18:50:18;;;;;;;13.30;10.80;;;22.90;70.00;;;;;;221399;1268;22531;-53
2023/10/25 18:55:50;;;;;;;15.90;11.10;;;23.00;69.50;;;;;;221688;1265;22527;-54
2023/10/25 19:01:20;;;;;;;14.30;11.10;;;23.10;69.90;;;;;;221063;1261;22682;-56
2023/10/25 19:06:36;;;;;;;20.10;12.00;;;23.00;70.10;;;;;;221052;1269;22534;-56
2023/10/25 19:11:57;;;;;;;17.70;11.50;;;23.10;71.80;;;;;;220879;1262;25626;-54
2023/10/25 19:17:11;;;;;;;16.10;11.80;;;23.00;71.30;;;;;;220994;1275;23407;-55
2023/10/25 19:22:23;;;;;;;14.10;12.60;;;23.20;71.10;;;;;;220732;1262;22556;-55
2023/10/25 19:27:34;;;;;;;16.70;11.40;;;23.10;71.60;;;;;;220951;1274;24385;-55
2023/10/25 19:32:51;;;;;;;16.30;12.10;;;23.10;71.10;;;;;;221036;1258;24279;-53
2023/10/25 19:38:10;;;;;;;16.40;12.20;;;23.10;71.40;;;;;;220993;1261;25339;-54
2023/10/25 19:43:26;;;;;;;15.90;11.80;;;23.10;71.70;;;;;;221342;1271;22537;-61
2023/10/25 19:48:41;;;;;;;18.60;12.40;;;23.00;71.80;;;;;;221447;1269;22533;-56
2023/10/25 19:53:59;;;;;;;19.20;13.00;;;23.10;72.20;;;;;;221387;1259;25482;-57
2023/10/25 19:59:15;;;;;;;21.40;13.10;;;23.10;71.90;;;;;;221158;1253;25345;-54
2023/10/25 20:04:35;;;;;;;18.70;13.00;;;23.00;72.30;;;;;;221223;1258;22529;-55
2023/10/25 20:09:53;;;;;;;21.10;12.70;;;22.90;72.00;;;;;;221318;1253;24214;-55
2023/10/25 20:15:10;;;;;;;22.50;12.80;;;23.00;71.80;;;;;;220095;1268;1733181;-52
2023/10/25 20:20:25;;;;;;;14.70;13.00;;;23.00;72.00;;;;;;221552;1267;25274;-56
2023/10/25 20:25:38;;;;;;;16.00;13.00;;;23.10;71.60;;;;;;221400;1259;22526;-55
2023/10/25 20:30:49;;;;;;;15.70;12.60;;;23.10;71.90;;;;;;221227;1259;24213;-57
2023/10/25 20:36:03;;;;;;;19.20;13.30;;;23.00;72.80;;;;;;221272;1268;22785;-54
2023/10/25 20:41:17;;;;;;;16.00;14.30;;;23.00;72.00;;;;;;221669;1262;22514;-59
2023/10/25 20:46:28;;;;;;;21.00;14.00;;;23.00;73.30;;;;;;221169;1267;24235;-56
2023/10/25 20:51:43;;;;;;;18.90;13.90;;;23.00;72.00;;;;;;221575;1265;22524;-54
2023/10/25 20:56:56;;;;;;;20.30;15.00;;;23.00;72.70;;;;;;221513;1267;22663;-57
2023/10/25 21:02:07;;;;;;;16.80;14.70;;;23.10;72.90;;;;;;221392;1270;24338;-59
2023/10/25 21:07:20;;;;;;;21.10;14.10;;;23.00;72.80;;;;;;221190;1264;24837;-58
2023/10/25 21:12:30;;;;;;;18.50;12.80;;;23.00;72.70;;;;;;221581;1268;25179;-58
2023/10/25 21:17:38;;;;;;;;;;;23.00;72.70;;;;;;221606;1265;25343;-58
2023/10/25 21:22:43;;;;;;;14.70;12.90;;;23.10;71.90;;;;;;221366;1257;23886;-58
2023/10/25 21:27:47;;;;;;;16.60;12.50;;;23.00;71.80;;;;;;221079;1267;22598;-58
2023/10/25 21:32:51;;;;;;;16.70;13.00;;;23.00;71.90;;;;;;221287;1267;22520;-59
2023/10/25 21:37:56;;;;;;;13.60;12.30;;;23.00;72.00;;;;;;221082;1268;22766;-59
2023/10/25 21:43:00;;;;;;;14.80;12.30;;;22.90;72.30;;;;;;221327;1268;22522;-58
2023/10/25 21:48:05;;;;;;;13.80;12.30;;;22.90;73.50;;;;;;221419;1259;24241;-59
2023/10/25 21:53:10;;;;;;;13.40;11.20;;;22.90;73.90;;;;;;221632;1267;22699;-59
2023/10/25 21:58:14;;;;;;;13.40;11.80;;;22.80;73.40;;;;;;221023;1268;22562;-58
2023/10/25 22:03:39;;;;;;;13.60;11.40;;;22.80;73.80;;;;;;221454;1265;23871;-59
2023/10/25 22:08:44;;;;;;;13.00;11.50;;;22.80;73.20;;;;;;221631;1271;22514;-59
2023/10/25 22:13:48;;;;;;;16.00;12.60;;;22.70;73.00;;;;;;221318;1265;22530;-58
2023/10/25 22:18:52;;;;;;;18.20;11.80;;;22.70;73.80;;;;;;221369;1261;22518;-59
2023/10/25 22:23:57;;;;;;;15.70;11.50;;;22.70;73.40;;;;;;221426;1271;22665;-58
2023/10/25 22:29:02;;;;;;;13.00;10.50;;;22.70;72.70;;;;;;221509;1265;22518;-58
2023/10/25 22:34:20;;;;;;;13.80;11.00;;;22.60;72.90;;;;;;221415;1259;22600;-59
2023/10/25 22:39:24;;;;;;;13.80;11.10;;;22.60;73.90;;;;;;221568;1257;22563;-59
2023/10/25 22:44:32;;;;;;;13.00;11.50;;;22.60;72.60;;;;;;221540;1265;22527;-54
2023/10/25 22:49:36;;;;;;;14.70;10.90;;;22.60;73.40;;;;;;221302;1262;23148;-59
2023/10/25 22:54:49;;;;;;;15.80;11.40;;;22.60;73.80;;;;;;221662;1265;22788;-59
2023/10/25 22:59:53;;;;;;;13.30;11.70;;;22.50;72.80;;;;;;221422;1265;25355;-58
2023/10/25 23:04:58;;;;;;;14.20;11.60;;;22.50;73.00;;;;;;221447;1259;22518;-59
2023/10/25 23:10:04;;;;;;;13.50;11.40;;;22.40;73.20;;;;;;221807;1266;22741;-59
2023/10/25 23:15:08;;;;;;;15.40;11.80;;;22.50;73.20;;;;;;222092;1257;22821;-59
2023/10/25 23:20:13;;;;;;;14.80;11.70;;;22.90;73.70;;;;;;224125;1264;22624;-57
2023/10/25 23:25:17;;;;;;;17.30;10.80;;;23.20;72.10;;;;;;221998;1265;22531;-58
2023/10/25 23:30:21;;;;;;;12.20;10.50;;;23.30;71.80;;;;;;222099;1267;22510;-58
2023/10/25 23:35:26;;;;;;;18.60;11.40;;;23.40;71.20;;;;;;222103;1268;22622;-58
2023/10/25 23:40:30;;;;;;;11.50;10.30;;;23.40;71.10;;;;;;221993;1262;22528;-58
2023/10/25 23:45:37;;;;;;;12.80;10.10;;;23.50;70.90;;;;;;222013;1267;23669;-57
2023/10/25 23:50:42;;;;;;;13.10;10.40;;;23.60;71.30;;;;;;221961;1268;22608;-58
2023/10/25 23:55:47;;;;;;;12.00;9.70;;;23.60;70.70;;;;;;222188;1268;24353;-57
